createdAt,value
2023-04-22T12:12:35.654Z,0.77
2023-04-22T12:15:16.180Z,0.47
2023-04-22T12:17:50.762Z,1.17
2023-04-22T12:20:18.317Z,0.57
2023-04-22T12:22:45.548Z,0.52
2023-04-22T12:25:17.777Z,0.80
2023-04-22T12:27:44.969Z,0.90
2023-04-22T12:30:14.662Z,2.55
2023-04-22T12:32:41.796Z,0.93
2023-04-22T12:35:09.456Z,0.98
2023-04-22T12:37:36.837Z,0.60
2023-04-22T12:40:05.470Z,1.02
2023-04-22T12:42:33.489Z,0.75
2023-04-22T12:45:00.847Z,1.52
2023-04-22T12:47:28.115Z,0.60
2023-04-22T12:49:55.544Z,0.68
2023-04-22T12:52:22.794Z,0.30
2023-04-22T12:54:50.005Z,0.80
2023-04-22T12:57:17.206Z,1.00
2023-04-22T12:59:47.370Z,0.85
2023-04-22T13:02:15.344Z,0.43
2023-04-22T13:04:42.731Z,0.20
2023-04-22T13:07:10.153Z,0.40
2023-04-22T13:09:37.460Z,1.27
2023-04-22T13:12:05.218Z,0.70
2023-04-22T13:14:32.473Z,0.40
2023-04-22T13:16:59.846Z,0.47
2023-04-22T13:19:27.409Z,0.80
2023-04-22T13:21:54.665Z,0.88
2023-04-22T13:24:22.640Z,0.80
2023-04-22T13:26:49.934Z,1.10
2023-04-22T13:29:17.099Z,1.40
2023-04-22T13:31:47.236Z,1.02
2023-04-22T13:34:15.597Z,1.15
2023-04-22T13:36:42.813Z,1.70
2023-04-22T13:39:10.007Z,1.30
2023-04-22T13:41:37.284Z,1.50
2023-04-22T13:44:04.634Z,1.50
2023-04-22T13:46:31.839Z,1.58
2023-04-22T13:48:59.249Z,2.00
2023-04-22T13:51:26.358Z,1.90
2023-04-22T13:53:53.745Z,2.13
2023-04-22T13:56:21.173Z,2.00
2023-04-22T13:58:49.214Z,1.90
2023-04-22T14:01:16.444Z,2.25
2023-04-22T14:03:44.774Z,2.00
2023-04-22T14:06:12.813Z,2.17
2023-04-22T14:08:41.354Z,2.97
2023-04-22T14:11:09.224Z,2.67
2023-04-22T14:13:36.997Z,2.50
2023-04-22T14:16:09.875Z,2.80
2023-04-22T14:18:38.795Z,2.60
2023-04-22T14:21:09.325Z,2.72
2023-04-22T14:23:38.014Z,2.70
2023-04-22T14:26:07.365Z,2.80
2023-04-22T14:28:35.875Z,3.10
2023-04-22T15:20:17.836Z,1.40
2023-04-22T15:22:46.487Z,1.73
2023-04-22T15:25:14.044Z,0.80
2023-04-22T15:27:41.748Z,0.65
2023-04-22T15:30:11.201Z,0.40
2023-04-22T15:32:41.913Z,0.70
2023-04-22T15:35:09.253Z,0.95
2023-04-22T15:37:36.577Z,0.30
2023-04-22T15:40:06.138Z,0.75
2023-04-22T15:42:33.539Z,0.57
2023-04-22T15:45:01.763Z,0.30
2023-04-22T15:47:29.773Z,0.95
2023-04-22T15:50:01.540Z,0.40
2023-04-22T15:52:28.841Z,0.28
2023-04-22T15:54:56.142Z,0.30
2023-04-22T15:57:23.419Z,0.60
2023-04-22T15:59:59.275Z,0.77
2023-04-22T16:02:42.619Z,0.20
2023-04-22T16:05:15.066Z,0.50
2023-04-22T16:07:42.657Z,0.50
2023-04-22T16:10:10.882Z,0.38
2023-04-22T16:12:38.189Z,2.55
2023-04-22T16:15:07.113Z,0.50
2023-04-22T16:17:34.506Z,0.80
2023-04-22T16:20:02.334Z,0.40
2023-04-22T16:22:29.520Z,0.57
2023-04-22T16:24:56.803Z,0.30
2023-04-22T16:27:24.069Z,0.20
2023-04-22T16:29:51.242Z,2.10
2023-04-22T16:32:18.438Z,0.20
2023-04-22T16:34:45.944Z,0.50
2023-04-22T16:37:13.213Z,0.40
2023-04-22T16:39:40.829Z,0.83
2023-04-22T16:42:08.233Z,0.20
2023-04-22T16:44:35.475Z,0.60
2023-04-22T16:47:02.653Z,0.40
2023-04-22T16:49:30.079Z,0.20
2023-04-22T16:51:57.868Z,0.87
2023-04-22T16:54:25.706Z,0.60
2023-04-22T16:56:52.883Z,0.30
2023-04-22T16:59:20.152Z,0.30
2023-04-22T17:01:47.459Z,0.57
2023-04-22T17:04:14.885Z,0.60
2023-04-22T17:06:42.140Z,1.20
2023-04-22T17:09:10.028Z,0.30
2023-04-22T17:11:37.628Z,0.33
2023-04-22T17:14:05.320Z,0.30
2023-04-22T17:16:32.641Z,0.60
2023-04-22T17:18:59.887Z,0.60
2023-04-22T17:21:28.242Z,0.30
2023-04-22T17:23:55.557Z,0.67
2023-04-22T17:26:22.913Z,0.50
2023-04-22T17:28:50.079Z,0.43
2023-04-22T17:31:17.970Z,0.70
2023-04-22T17:33:45.201Z,0.20
2023-04-22T17:36:12.584Z,0.37
2023-04-22T17:38:41.176Z,0.27
2023-04-22T17:41:08.677Z,0.87
2023-04-22T17:43:36.441Z,0.40
2023-04-22T17:46:03.776Z,0.20
2023-04-22T17:48:31.126Z,0.30
2023-04-22T17:51:01.624Z,0.50
2023-04-22T17:53:29.166Z,0.30
2023-04-22T17:55:56.385Z,0.40
2023-04-22T17:58:23.824Z,0.30
2023-04-22T18:00:51.152Z,0.20
2023-04-22T18:03:20.342Z,0.20
2023-04-22T18:05:48.084Z,0.20
2023-04-22T18:08:15.318Z,0.40
2023-04-22T18:10:42.558Z,0.20
2023-04-22T18:13:09.796Z,0.43
2023-04-22T18:15:36.903Z,0.20
2023-04-22T18:18:04.279Z,0.60
2023-04-22T18:20:31.768Z,0.20
2023-04-22T18:22:59.013Z,0.60
2023-04-22T18:25:26.341Z,0.20
2023-04-22T18:27:56.941Z,0.20
2023-04-22T18:30:25.305Z,0.20
2023-04-22T18:32:52.560Z,0.40
2023-04-22T18:35:20.565Z,0.10
2023-04-22T18:37:48.035Z,1.07
2023-04-22T18:40:15.467Z,0.20
2023-04-22T18:42:45.130Z,0.20
2023-04-22T18:45:12.776Z,0.60
2023-04-22T18:47:39.990Z,0.10
2023-04-22T18:50:08.020Z,0.37
2023-04-22T18:52:35.196Z,0.20
2023-04-22T18:55:03.228Z,0.20
2023-04-22T18:57:30.780Z,0.10
2023-04-22T18:59:58.112Z,0.37
2023-04-22T19:02:29.504Z,0.40
2023-04-22T19:05:02.919Z,0.20
2023-04-22T19:07:30.090Z,0.30
2023-04-22T19:09:57.279Z,0.40
2023-04-22T19:12:24.778Z,0.47
2023-04-22T19:14:51.920Z,0.40
2023-04-22T19:17:19.129Z,0.30
2023-04-22T19:19:46.797Z,0.50
2023-04-22T19:22:14.263Z,0.10
2023-04-22T19:24:41.786Z,0.20
2023-04-22T19:27:12.607Z,0.10
2023-04-22T19:29:43.588Z,0.60
2023-04-22T19:32:11.768Z,0.33
2023-04-22T19:34:39.522Z,0.30
2023-04-22T19:37:06.885Z,0.20
2023-04-22T19:39:33.950Z,0.60
2023-04-22T19:42:04.653Z,0.50
2023-04-22T19:44:32.650Z,0.60
2023-04-22T19:47:00.079Z,0.33
2023-04-22T19:49:28.073Z,0.10
2023-04-22T19:51:57.011Z,0.20
2023-04-22T19:54:29.444Z,0.10
2023-04-22T19:56:58.738Z,0.20
2023-04-22T19:59:28.171Z,0.40
2023-04-22T20:01:55.600Z,0.17
2023-04-22T20:04:23.233Z,0.20
2023-04-22T20:06:52.275Z,0.20
2023-04-22T20:09:19.867Z,0.60
2023-04-22T20:11:48.131Z,0.20
2023-04-22T20:14:16.386Z,0.80
2023-04-22T20:16:44.810Z,0.20
2023-04-22T20:19:12.190Z,0.30
2023-04-22T20:21:40.320Z,0.30
2023-04-22T20:24:08.249Z,0.17
2023-04-22T20:26:35.582Z,0.30
2023-04-22T20:29:03.387Z,0.10
2023-04-22T20:31:30.824Z,0.30
2023-04-22T20:33:58.290Z,0.20
2023-04-22T20:36:26.778Z,0.30
2023-04-22T20:38:56.345Z,0.40
2023-04-22T20:41:24.635Z,0.20
2023-04-22T20:43:52.984Z,1.13
2023-04-22T20:46:23.327Z,0.30
2023-04-22T20:48:50.864Z,0.40
2023-04-22T20:51:18.616Z,0.30
2023-04-22T20:53:45.932Z,0.20
2023-04-22T20:56:13.077Z,0.50
2023-04-22T20:58:40.317Z,0.50
2023-04-22T21:01:09.341Z,0.20
2023-04-22T21:03:40.325Z,0.30
2023-04-22T21:06:09.104Z,0.73
2023-04-22T21:08:39.404Z,0.20
2023-04-22T21:11:06.855Z,0.43
2023-04-22T21:13:34.551Z,0.27
2023-04-22T21:16:08.661Z,0.10
2023-04-22T21:18:39.844Z,0.20
2023-04-22T21:21:08.279Z,0.20
2023-04-22T21:23:36.351Z,0.20
2023-04-22T21:26:04.643Z,0.43
2023-04-22T21:28:32.560Z,0.20
2023-04-22T21:31:00.760Z,0.80
2023-04-22T21:33:28.095Z,0.40
2023-04-22T21:35:55.559Z,0.20
2023-04-22T21:38:22.740Z,0.73
2023-04-22T21:40:50.022Z,0.13
2023-04-22T21:43:17.296Z,0.10
2023-04-22T21:45:44.497Z,0.60
2023-04-22T21:48:11.766Z,0.20
2023-04-22T21:50:38.917Z,0.50
2023-04-22T21:53:06.410Z,0.30
2023-04-22T21:55:33.831Z,0.20
2023-04-22T21:58:01.149Z,0.67
2023-04-22T22:00:28.637Z,0.10
2023-04-22T22:02:55.921Z,1.40
2023-04-22T22:05:23.172Z,0.47
2023-04-22T22:07:50.542Z,0.10
2023-04-22T22:10:22.755Z,0.10
2023-04-22T22:12:50.556Z,0.73
2023-04-22T22:15:17.850Z,0.53
2023-04-22T22:17:45.921Z,0.30
2023-04-22T22:20:16.834Z,0.20
2023-04-22T22:22:44.867Z,0.23
2023-04-22T22:25:14.394Z,0.27
2023-04-22T22:27:47.304Z,0.73
2023-04-22T22:30:16.272Z,0.50
2023-04-22T22:32:43.531Z,0.20
2023-04-22T22:35:11.235Z,0.17
2023-04-22T22:37:38.571Z,0.20
2023-04-22T22:40:08.937Z,1.80
2023-04-22T22:42:36.389Z,1.37
2023-04-22T22:45:05.334Z,0.20
2023-04-22T22:47:33.063Z,0.30
2023-04-22T22:50:00.779Z,0.17
2023-04-22T22:52:28.080Z,0.30
2023-04-22T22:54:55.580Z,0.30
2023-04-22T22:57:22.841Z,0.40
2023-04-22T22:59:50.216Z,1.13
2023-04-22T23:02:17.890Z,0.10
2023-04-22T23:04:46.261Z,1.17
2023-04-22T23:07:14.817Z,0.50
2023-04-22T23:09:42.491Z,0.27
2023-04-22T23:12:09.785Z,0.20
2023-04-22T23:14:36.944Z,0.40
2023-04-22T23:17:04.258Z,0.10
2023-04-22T23:19:32.486Z,0.30
2023-04-22T23:21:59.853Z,0.10
2023-04-22T23:24:27.506Z,0.10
2023-04-22T23:26:55.146Z,0.20
2023-04-22T23:29:22.825Z,0.93
2023-04-22T23:31:51.911Z,0.10
2023-04-22T23:34:23.919Z,0.50
2023-04-22T23:36:53.003Z,0.10
2023-04-22T23:39:20.340Z,0.30
2023-04-22T23:41:47.556Z,0.40
2023-04-22T23:44:14.741Z,0.47
2023-04-22T23:46:42.374Z,0.10
2023-04-22T23:49:09.689Z,0.30
2023-04-22T23:51:38.504Z,0.20
2023-04-22T23:54:06.014Z,0.10
2023-04-22T23:56:33.593Z,0.20
2023-04-22T23:59:01.236Z,0.53
